Terminal Aerodrome Forecast
Issued by NWS Bismarck, ND

Home | Current Version | Previous Version | Graphics & Text | Print | Product List | Glossary On
Versions: 1 2 3 4 5 6 7 8 9 10 11 12 13 14 15 16 17
000
FTUS43 KBIS 151100
TAFISN
TAF
KISN 151123Z 1512/1612 14014G20KT P6SM BKN100
     FM151500 15016G23KT P6SM BKN070
     FM152300 09014G20KT P6SM VCSH SCT035 BKN050 OVC070
     FM160200 06014KT 3SM -SN BKN025 OVC035
     FM160800 04012KT 3SM -SN OVC015=

USA.gov is the U.S. government's official web portal to all federal, state and local government web resources and services.